createdAt,value
2023-05-16T00:00:29.524Z,956.85
2023-05-16T00:01:24.679Z,956.85
2023-05-16T00:02:20.991Z,956.83
2023-05-16T00:03:16.388Z,956.81
2023-05-16T00:04:12.104Z,956.85
2023-05-16T00:05:07.225Z,956.81
2023-05-16T00:06:02.293Z,956.83
2023-05-16T00:06:58.311Z,956.85
2023-05-16T00:07:53.513Z,956.85
2023-05-16T00:08:49.262Z,956.85
2023-05-16T00:09:44.331Z,956.81
2023-05-16T00:10:39.691Z,956.79
2023-05-16T00:11:35.437Z,956.79
2023-05-16T00:12:30.786Z,956.77
2023-05-16T00:13:25.903Z,956.83
2023-05-16T00:14:22.209Z,956.81
2023-05-16T00:15:17.392Z,956.81
2023-05-16T00:16:13.328Z,956.79
2023-05-16T00:17:08.684Z,956.79
2023-05-16T00:18:03.892Z,956.79
2023-05-16T00:18:59.568Z,956.79
2023-05-16T00:19:54.761Z,956.79
2023-05-16T00:20:50.496Z,956.77
2023-05-16T00:21:45.673Z,956.79
2023-05-16T00:22:41.075Z,956.77
2023-05-16T00:23:36.715Z,956.77
2023-05-16T00:24:31.883Z,956.75
2023-05-16T00:25:27.140Z,956.75
2023-05-16T00:26:23.275Z,956.77
2023-05-16T00:27:18.494Z,956.77
2023-05-16T00:28:14.404Z,956.71
2023-05-16T00:29:09.432Z,956.71
2023-05-16T00:30:04.481Z,956.73
2023-05-16T00:31:00.358Z,956.73
2023-05-16T00:31:55.607Z,956.71
2023-05-16T00:32:51.363Z,956.71
2023-05-16T00:33:47.228Z,956.67
2023-05-16T00:34:41.777Z,956.71
2023-05-16T00:35:37.499Z,956.71
2023-05-16T00:36:32.714Z,956.71
2023-05-16T00:37:28.028Z,956.73
2023-05-16T00:38:24.205Z,956.71
2023-05-16T00:39:19.387Z,956.77
2023-05-16T00:40:15.324Z,956.81
2023-05-16T00:41:10.448Z,956.85
2023-05-16T00:42:05.620Z,956.83
2023-05-16T00:43:00.832Z,956.83
2023-05-16T00:43:55.998Z,956.83
2023-05-16T00:44:52.662Z,956.81
2023-05-16T00:45:47.927Z,956.81
2023-05-16T00:46:43.734Z,956.79
2023-05-16T00:47:38.892Z,956.79
2023-05-16T00:48:33.844Z,956.79
2023-05-16T00:49:29.761Z,956.77
2023-05-16T00:50:24.891Z,956.77
2023-05-16T00:51:20.729Z,956.73
2023-05-16T00:52:16.110Z,956.71
2023-05-16T00:53:11.199Z,956.75
2023-05-16T00:54:06.995Z,956.73
2023-05-16T00:55:02.218Z,956.75
2023-05-16T00:55:57.382Z,956.75
2023-05-16T00:56:53.645Z,956.75
2023-05-16T00:57:48.885Z,956.73
2023-05-16T00:58:44.595Z,956.73
2023-05-16T00:59:39.798Z,956.73
2023-05-16T01:00:34.934Z,956.75
2023-05-16T01:01:30.152Z,956.77
2023-05-16T01:02:25.285Z,956.77
2023-05-16T01:03:20.760Z,956.79
2023-05-16T01:04:15.933Z,956.79
2023-05-16T01:05:11.058Z,956.77
2023-05-16T01:06:06.894Z,956.77
2023-05-16T01:07:01.990Z,956.79
2023-05-16T01:07:57.161Z,956.77
2023-05-16T01:08:52.374Z,956.79
2023-05-16T01:09:47.380Z,956.79
2023-05-16T01:10:42.425Z,956.77
2023-05-16T01:11:37.689Z,956.79
2023-05-16T01:12:32.579Z,956.75
2023-05-16T01:13:27.639Z,956.77
2023-05-16T01:14:22.691Z,956.75
2023-05-16T01:15:17.956Z,956.71
2023-05-16T01:16:13.104Z,956.67
2023-05-16T01:18:33.704Z,956.67
2023-05-16T01:19:28.859Z,956.65
2023-05-16T01:20:23.841Z,956.63
2023-05-16T01:21:19.053Z,956.65
2023-05-16T01:22:14.332Z,956.63
2023-05-16T01:23:09.372Z,956.63
2023-05-16T01:24:04.538Z,956.65
2023-05-16T01:24:59.718Z,956.65
2023-05-16T01:25:54.856Z,956.65
2023-05-16T01:26:50.070Z,956.65
2023-05-16T01:27:45.191Z,956.63
2023-05-16T01:28:40.511Z,956.61
2023-05-16T01:29:35.540Z,956.63
2023-05-16T01:30:30.698Z,956.61
2023-05-16T01:31:25.901Z,956.63
2023-05-16T01:32:21.127Z,956.63
2023-05-16T01:33:16.142Z,956.63
2023-05-16T01:34:11.315Z,956.65
2023-05-16T01:35:06.453Z,956.65
2023-05-16T01:36:01.667Z,956.63
2023-05-16T01:36:56.790Z,956.61
2023-05-16T01:37:52.125Z,956.59
2023-05-16T01:38:47.260Z,956.59
2023-05-16T01:39:42.311Z,956.59
2023-05-16T01:40:37.446Z,956.59
2023-05-16T01:41:32.627Z,956.57
2023-05-16T01:42:27.807Z,956.57
2023-05-16T01:43:22.985Z,956.59
2023-05-16T01:44:18.120Z,956.57
2023-05-16T01:45:13.275Z,956.55
2023-05-16T01:46:08.398Z,956.57
2023-05-16T01:47:03.704Z,956.57
2023-05-16T01:47:58.796Z,956.57
2023-05-16T01:48:54.018Z,956.57
2023-05-16T01:49:49.034Z,956.57
2023-05-16T01:50:44.178Z,956.51
2023-05-16T01:51:39.346Z,956.53
2023-05-16T01:52:34.665Z,956.51
2023-05-16T01:53:29.678Z,956.53
2023-05-16T01:54:24.904Z,956.51
2023-05-16T01:55:20.048Z,956.53
2023-05-16T01:56:15.200Z,956.55
2023-05-16T01:57:10.347Z,956.55
2023-05-16T01:58:05.518Z,956.57
2023-05-16T01:59:00.798Z,956.57
2023-05-16T01:59:55.848Z,956.57
2023-05-16T02:00:51.039Z,956.55
2023-05-16T02:01:46.177Z,956.57
2023-05-16T02:02:41.355Z,956.57
2023-05-16T02:03:36.723Z,956.59
2023-05-16T02:04:31.623Z,956.59
2023-05-16T02:05:26.943Z,956.61
2023-05-16T02:06:21.936Z,956.59
2023-05-16T02:07:17.132Z,956.61
2023-05-16T02:08:12.462Z,956.61
2023-05-16T02:09:07.617Z,956.61
2023-05-16T02:10:02.660Z,956.61
2023-05-16T02:10:57.889Z,956.65
2023-05-16T02:11:53.041Z,956.65
2023-05-16T02:12:48.208Z,956.65
2023-05-16T02:13:43.338Z,956.65
2023-05-16T02:14:38.573Z,956.65
2023-05-16T02:15:33.659Z,956.63
2023-05-16T02:16:28.863Z,956.61
2023-05-16T02:17:23.955Z,956.61
2023-05-16T02:18:19.151Z,956.61
2023-05-16T02:19:14.498Z,956.57
2023-05-16T02:20:09.567Z,956.59
2023-05-16T02:21:04.743Z,956.59
2023-05-16T02:21:59.900Z,956.59
2023-05-16T02:22:55.038Z,956.61
2023-05-16T02:23:50.385Z,956.59
2023-05-16T02:24:45.256Z,956.61
2023-05-16T02:25:40.424Z,956.59
2023-05-16T02:26:35.579Z,956.59
2023-05-16T02:27:30.820Z,956.55
2023-05-16T02:28:26.019Z,956.57
2023-05-16T02:29:21.309Z,956.57
2023-05-16T02:30:16.344Z,956.57
2023-05-16T02:31:11.631Z,956.53
2023-05-16T02:32:06.661Z,956.55
2023-05-16T02:33:01.895Z,956.53
2023-05-16T02:33:56.922Z,956.55
2023-05-16T02:34:51.969Z,956.53
2023-05-16T02:35:47.101Z,956.53
2023-05-16T02:36:42.264Z,956.51
2023-05-16T02:37:37.430Z,956.45
2023-05-16T02:38:32.615Z,956.38
2023-05-16T02:39:27.904Z,956.38
2023-05-16T02:40:22.952Z,956.45
2023-05-16T02:41:18.075Z,956.38
2023-05-16T02:42:13.290Z,956.38
2023-05-16T02:43:08.422Z,956.38
2023-05-16T02:44:03.557Z,956.36
2023-05-16T02:44:58.909Z,956.32
2023-05-16T02:45:54.000Z,956.36
2023-05-16T02:46:49.160Z,956.36
2023-05-16T02:47:44.286Z,956.36
2023-05-16T02:48:39.408Z,956.36
2023-05-16T02:49:34.767Z,956.36
2023-05-16T02:50:29.788Z,956.34
2023-05-16T02:51:26.330Z,956.34
2023-05-16T02:52:21.590Z,956.36
2023-05-16T02:53:16.653Z,956.34
2023-05-16T02:54:11.821Z,956.36
2023-05-16T02:55:20.936Z,956.32
2023-05-16T02:56:03.113Z,956.36
2023-05-16T02:56:57.231Z,956.34
2023-05-16T02:57:52.530Z,956.36
2023-05-16T02:58:47.743Z,956.36
2023-05-16T02:59:42.918Z,956.36
2023-05-16T03:00:38.187Z,956.36
2023-05-16T03:01:33.402Z,956.34
2023-05-16T03:02:28.638Z,956.34
2023-05-16T03:03:23.908Z,956.34
2023-05-16T03:04:18.894Z,956.32
2023-05-16T03:05:14.058Z,956.34
2023-05-16T03:06:09.276Z,956.34
2023-05-16T03:07:04.418Z,956.32
2023-05-16T03:07:59.630Z,956.32
2023-05-16T03:08:54.806Z,956.28
2023-05-16T03:09:49.998Z,956.32
2023-05-16T03:10:45.349Z,956.30
2023-05-16T03:11:40.428Z,956.30
2023-05-16T03:12:35.575Z,956.28
2023-05-16T03:13:30.762Z,956.30
2023-05-16T03:14:25.961Z,956.30
2023-05-16T03:15:21.116Z,956.32
2023-05-16T03:16:16.323Z,956.32
2023-05-16T03:17:11.513Z,956.32
2023-05-16T03:18:06.746Z,956.28
2023-05-16T03:19:02.009Z,956.28
2023-05-16T03:19:57.373Z,956.26
2023-05-16T03:20:52.364Z,956.26
2023-05-16T03:21:47.637Z,956.28
2023-05-16T03:22:42.868Z,956.28
2023-05-16T03:23:37.939Z,956.26
2023-05-16T03:24:33.113Z,956.26
2023-05-16T03:25:28.223Z,956.26
2023-05-16T03:26:23.138Z,956.26
2023-05-16T03:27:18.129Z,956.22
2023-05-16T03:28:14.734Z,956.24
2023-05-16T03:29:08.235Z,956.22
2023-05-16T03:30:03.397Z,956.24
2023-05-16T03:30:58.347Z,956.22
2023-05-16T03:31:53.502Z,956.22
2023-05-16T03:32:48.512Z,956.22
2023-05-16T03:33:43.517Z,956.22
2023-05-16T03:34:38.514Z,956.18
2023-05-16T03:35:33.620Z,956.18
2023-05-16T03:36:28.606Z,956.20
2023-05-16T03:37:23.683Z,956.18
2023-05-16T03:38:18.722Z,956.18
2023-05-16T03:39:13.842Z,956.20
2023-05-16T03:40:08.867Z,956.18
2023-05-16T03:41:03.916Z,956.18
2023-05-16T03:41:58.948Z,956.22
2023-05-16T03:42:54.258Z,956.22
2023-05-16T03:43:49.733Z,956.26
2023-05-16T03:44:45.160Z,956.24
2023-05-16T03:45:40.272Z,956.28
2023-05-16T03:46:36.344Z,956.28
2023-05-16T03:47:30.931Z,956.30
2023-05-16T03:48:26.318Z,956.30
2023-05-16T03:49:21.735Z,956.32
2023-05-16T03:50:17.013Z,956.34
2023-05-16T03:51:12.294Z,956.30
2023-05-16T03:52:07.684Z,956.32
2023-05-16T03:53:03.028Z,956.30
2023-05-16T03:53:58.473Z,956.30
2023-05-16T03:54:53.886Z,956.32
2023-05-16T03:55:49.135Z,956.30
2023-05-16T03:56:48.903Z,956.32
2023-05-16T03:57:44.216Z,956.32
2023-05-16T03:58:39.579Z,956.32
2023-05-16T03:59:35.060Z,956.32
2023-05-16T04:00:30.551Z,956.34
2023-05-16T04:01:25.947Z,956.36
2023-05-16T04:02:21.302Z,956.36
2023-05-16T04:03:16.670Z,956.36
2023-05-16T04:04:11.940Z,956.34
2023-05-16T04:05:07.254Z,956.36
2023-05-16T04:06:02.602Z,956.36
2023-05-16T04:06:57.943Z,956.38
2023-05-16T04:07:54.321Z,956.38
2023-05-16T04:08:48.681Z,956.45
2023-05-16T04:09:44.144Z,956.47
2023-05-16T04:10:39.305Z,956.49
2023-05-16T04:11:34.723Z,956.49
2023-05-16T04:12:29.974Z,956.51
2023-05-16T04:13:25.442Z,956.49
2023-05-16T04:14:20.997Z,956.51
2023-05-16T04:15:16.037Z,956.51
2023-05-16T04:16:11.320Z,956.51
2023-05-16T04:17:06.467Z,956.51
2023-05-16T04:18:01.406Z,956.55
2023-05-16T04:18:56.684Z,956.53
2023-05-16T04:19:53.796Z,956.53
2023-05-16T04:20:48.909Z,956.53
2023-05-16T04:21:44.062Z,956.55
2023-05-16T04:22:39.164Z,956.55
2023-05-16T04:23:34.236Z,956.55
2023-05-16T04:24:29.337Z,956.53
2023-05-16T04:25:24.443Z,956.59
2023-05-16T04:26:19.528Z,956.61
2023-05-16T04:27:14.477Z,956.55
2023-05-16T04:28:10.373Z,956.57
2023-05-16T04:29:05.415Z,956.61
2023-05-16T04:30:00.648Z,956.59
2023-05-16T04:30:55.686Z,956.63
2023-05-16T04:31:50.830Z,956.63
2023-05-16T04:32:45.773Z,956.65
2023-05-16T04:33:40.874Z,956.63
2023-05-16T04:34:37.881Z,956.65
2023-05-16T04:35:31.283Z,956.67
2023-05-16T04:36:26.831Z,956.65
2023-05-16T04:37:22.271Z,956.67
2023-05-16T04:38:17.682Z,956.67
2023-05-16T04:39:13.355Z,956.67
2023-05-16T04:40:08.631Z,956.67
2023-05-16T04:41:04.222Z,956.67
2023-05-16T04:41:59.662Z,956.73
2023-05-16T04:42:55.090Z,956.69
2023-05-16T04:43:50.517Z,956.73
2023-05-16T04:44:46.054Z,956.71
2023-05-16T04:45:41.319Z,956.71
2023-05-16T04:46:36.442Z,956.69
2023-05-16T04:47:31.399Z,956.71
2023-05-16T04:48:26.518Z,956.69
2023-05-16T04:49:21.523Z,956.69
2023-05-16T04:50:16.811Z,956.67
2023-05-16T04:51:11.655Z,956.65
2023-05-16T04:52:06.789Z,956.67
2023-05-16T04:53:01.780Z,956.69
2023-05-16T04:53:56.905Z,956.69
2023-05-16T04:54:52.052Z,956.71
2023-05-16T04:55:46.965Z,956.69
2023-05-16T04:56:42.032Z,956.71
2023-05-16T04:57:40.442Z,956.69
2023-05-16T04:58:35.489Z,956.71
2023-05-16T04:59:30.608Z,956.73
2023-05-16T05:00:25.981Z,956.73
2023-05-16T05:01:20.710Z,956.75
2023-05-16T05:02:15.842Z,956.73
2023-05-16T05:03:10.944Z,956.79
2023-05-16T05:04:05.907Z,956.77
2023-05-16T05:05:01.162Z,956.75
2023-05-16T05:05:56.341Z,956.75
2023-05-16T05:06:52.831Z,956.75
2023-05-16T05:07:48.265Z,956.73
2023-05-16T05:08:44.205Z,956.73
2023-05-16T05:09:39.719Z,956.73
2023-05-16T05:10:35.190Z,956.75
2023-05-16T05:11:30.924Z,956.75
2023-05-16T05:12:26.386Z,956.73
2023-05-16T05:13:22.230Z,956.73
2023-05-16T05:14:17.580Z,956.75
2023-05-16T05:15:12.895Z,956.73
2023-05-16T05:16:08.846Z,956.73
2023-05-16T05:17:04.360Z,956.71
2023-05-16T05:17:59.903Z,956.69
2023-05-16T05:18:56.200Z,956.69
2023-05-16T05:19:51.609Z,956.71
2023-05-16T05:20:47.466Z,956.71
2023-05-16T05:21:42.944Z,956.71
2023-05-16T05:22:38.368Z,956.75
2023-05-16T05:23:34.154Z,956.77
2023-05-16T05:24:29.575Z,956.77
2023-05-16T05:25:25.602Z,956.81
2023-05-16T05:26:20.862Z,956.81
2023-05-16T05:27:16.517Z,956.83
2023-05-16T05:28:12.142Z,956.83
2023-05-16T05:29:07.513Z,956.85
2023-05-16T05:30:02.997Z,956.91
2023-05-16T05:30:59.167Z,956.89
2023-05-16T05:31:54.628Z,956.89
2023-05-16T05:32:50.661Z,956.91
2023-05-16T05:33:46.044Z,956.91
2023-05-16T05:34:41.520Z,956.87
2023-05-16T05:35:37.459Z,956.89
2023-05-16T05:36:32.796Z,956.89
2023-05-16T05:37:28.639Z,956.87
2023-05-16T05:38:24.001Z,956.87
2023-05-16T05:39:19.436Z,956.85
2023-05-16T05:40:15.231Z,956.85
2023-05-16T05:41:10.673Z,956.81
2023-05-16T05:42:06.172Z,956.81
2023-05-16T05:43:02.472Z,956.79
2023-05-16T05:43:57.935Z,956.81
2023-05-16T05:44:53.804Z,956.79
2023-05-16T05:45:49.500Z,956.79
2023-05-16T05:46:44.787Z,956.77
2023-05-16T05:47:40.751Z,956.77
2023-05-16T05:48:36.196Z,956.77
2023-05-16T05:49:32.102Z,956.81
2023-05-16T05:50:27.636Z,956.81
2023-05-16T05:51:22.983Z,956.81
2023-05-16T05:52:18.609Z,956.83
2023-05-16T05:53:14.194Z,956.81
2023-05-16T05:54:09.795Z,956.81
2023-05-16T05:55:05.026Z,956.83
2023-05-16T05:56:00.882Z,956.81
2023-05-16T05:56:56.349Z,956.81
2023-05-16T05:57:51.801Z,956.83
2023-05-16T05:58:47.563Z,956.81
2023-05-16T05:59:43.008Z,956.81
2023-05-16T06:00:38.811Z,956.81
2023-05-16T06:01:34.223Z,956.81
2023-05-16T06:02:29.799Z,956.81
2023-05-16T06:03:25.420Z,956.83
2023-05-16T06:04:20.864Z,956.83
2023-05-16T06:05:16.473Z,956.85
2023-05-16T06:06:12.578Z,956.83
2023-05-16T06:07:07.962Z,956.81
2023-05-16T06:08:03.653Z,956.83
2023-05-16T06:08:59.065Z,956.81
2023-05-16T06:09:54.526Z,956.81
2023-05-16T06:10:50.192Z,956.85
2023-05-16T06:11:45.684Z,956.83
2023-05-16T06:12:41.084Z,956.85
2023-05-16T06:13:36.519Z,956.85
2023-05-16T06:14:31.890Z,956.87
2023-05-16T06:15:27.310Z,956.89
2023-05-16T06:16:21.967Z,956.89
2023-05-16T06:17:17.209Z,956.87
2023-05-16T06:18:12.247Z,956.93
2023-05-16T06:19:07.270Z,956.89
2023-05-16T06:20:02.286Z,956.87
2023-05-16T06:20:57.306Z,956.91
2023-05-16T06:21:52.315Z,956.91
2023-05-16T06:22:47.481Z,956.89
2023-05-16T06:23:42.447Z,956.91
2023-05-16T06:24:37.649Z,956.89
2023-05-16T06:25:34.037Z,956.89
2023-05-16T06:26:29.309Z,956.87
2023-05-16T06:27:25.091Z,956.89
2023-05-16T06:28:20.502Z,956.85
2023-05-16T06:29:15.886Z,956.87
2023-05-16T06:30:11.700Z,956.87
2023-05-16T06:31:07.275Z,956.85
2023-05-16T06:32:03.115Z,956.87
2023-05-16T06:32:58.391Z,956.89
2023-05-16T06:33:53.757Z,956.89
2023-05-16T06:34:49.433Z,956.91
2023-05-16T06:35:44.987Z,956.87
2023-05-16T06:36:40.352Z,956.89
2023-05-16T06:37:36.719Z,956.93
2023-05-16T06:38:32.195Z,956.91
2023-05-16T06:39:28.114Z,956.91
2023-05-16T06:40:23.508Z,956.89
2023-05-16T06:41:19.041Z,956.89
2023-05-16T06:42:15.040Z,956.89
2023-05-16T06:43:10.156Z,956.89
2023-05-16T06:44:05.900Z,956.87
2023-05-16T06:45:01.417Z,956.87
2023-05-16T06:45:57.091Z,956.83
2023-05-16T06:46:52.656Z,956.79
2023-05-16T06:47:48.142Z,956.83
2023-05-16T06:48:43.589Z,956.83
2023-05-16T06:49:39.875Z,956.81
2023-05-16T06:50:35.368Z,956.83
2023-05-16T06:51:31.237Z,956.83
2023-05-16T06:52:26.745Z,956.83
2023-05-16T06:53:22.189Z,956.81
2023-05-16T06:54:17.965Z,956.81
2023-05-16T06:55:14.081Z,956.83
2023-05-16T06:56:09.205Z,956.81
2023-05-16T06:57:04.514Z,956.83
2023-05-16T06:58:00.118Z,956.85
2023-05-16T06:58:55.856Z,956.83
2023-05-16T06:59:51.472Z,956.85
2023-05-16T07:00:46.884Z,956.83
2023-05-16T07:01:43.296Z,956.89
2023-05-16T07:02:38.772Z,956.85
2023-05-16T07:03:34.703Z,956.83
2023-05-16T07:04:30.625Z,956.87
2023-05-16T07:05:25.836Z,956.85
2023-05-16T07:06:21.508Z,956.87
2023-05-16T07:07:16.916Z,956.87
2023-05-16T07:08:12.666Z,956.89
2023-05-16T07:09:08.230Z,956.85
2023-05-16T07:10:03.426Z,956.87
2023-05-16T07:10:59.503Z,956.89
2023-05-16T07:11:54.709Z,956.85
2023-05-16T07:12:50.235Z,956.91
2023-05-16T07:13:46.446Z,956.89
2023-05-16T07:14:41.964Z,956.93
2023-05-16T07:15:37.906Z,956.89
2023-05-16T07:16:33.377Z,956.93
2023-05-16T07:18:52.321Z,956.89
2023-05-16T07:19:47.584Z,956.93
2023-05-16T07:20:42.979Z,956.93
2023-05-16T07:21:38.450Z,956.93
2023-05-16T07:22:33.840Z,956.95
2023-05-16T07:23:29.258Z,956.93
2023-05-16T07:24:24.680Z,956.93
2023-05-16T07:25:20.151Z,956.97
2023-05-16T07:26:15.671Z,956.99
2023-05-16T07:27:11.011Z,956.97
2023-05-16T07:28:06.423Z,956.93
2023-05-16T07:29:01.840Z,956.97
2023-05-16T07:29:57.334Z,956.95
2023-05-16T07:30:52.749Z,956.93
2023-05-16T07:31:48.064Z,956.97
2023-05-16T07:32:43.597Z,956.97
2023-05-16T07:33:39.006Z,956.97
2023-05-16T07:34:34.454Z,956.99
2023-05-16T07:35:30.189Z,956.99
2023-05-16T07:36:26.016Z,956.99
2023-05-16T07:37:20.762Z,956.99
2023-05-16T07:38:16.280Z,956.99
2023-05-16T07:39:11.667Z,956.99
2023-05-16T07:40:06.886Z,956.97
2023-05-16T07:41:02.295Z,956.99
2023-05-16T07:41:57.737Z,956.99
2023-05-16T07:42:53.174Z,957.00
2023-05-16T07:43:48.659Z,957.00
2023-05-16T07:44:44.161Z,957.02
2023-05-16T07:45:39.737Z,957.04
2023-05-16T07:46:35.190Z,957.06
2023-05-16T07:47:30.493Z,957.04
2023-05-16T07:48:25.882Z,957.08
2023-05-16T07:49:21.577Z,957.06
2023-05-16T07:50:16.826Z,957.04
2023-05-16T07:51:12.255Z,957.08
2023-05-16T07:52:07.700Z,957.06
2023-05-16T07:53:03.155Z,957.08
2023-05-16T07:53:58.552Z,957.12
2023-05-16T07:54:54.059Z,957.10
2023-05-16T07:55:50.215Z,957.06
2023-05-16T07:56:44.985Z,957.06
2023-05-16T07:57:40.417Z,957.06
2023-05-16T07:58:35.877Z,957.08
2023-05-16T07:59:32.268Z,957.10
2023-05-16T08:00:27.785Z,957.08
2023-05-16T08:01:22.131Z,957.04
2023-05-16T08:02:17.659Z,957.08
2023-05-16T08:03:13.125Z,957.04
2023-05-16T08:04:08.637Z,957.04
2023-05-16T08:05:04.010Z,957.00
2023-05-16T08:05:59.679Z,957.04
2023-05-16T08:06:55.009Z,957.00
2023-05-16T08:07:50.477Z,956.99
2023-05-16T08:08:45.866Z,956.97
2023-05-16T08:09:41.437Z,956.97
2023-05-16T08:10:36.876Z,956.97
2023-05-16T08:11:32.329Z,956.99
2023-05-16T08:12:27.771Z,957.00
2023-05-16T08:13:23.063Z,956.97
2023-05-16T08:14:18.779Z,956.99
2023-05-16T08:15:13.967Z,956.97
2023-05-16T08:16:09.475Z,956.99
2023-05-16T08:17:04.865Z,956.99
2023-05-16T08:18:00.315Z,957.00
2023-05-16T08:18:55.844Z,957.04
2023-05-16T08:19:51.145Z,957.00
2023-05-16T08:20:46.576Z,957.06
2023-05-16T08:21:41.966Z,957.04
2023-05-16T08:22:37.364Z,957.02
2023-05-16T08:23:32.710Z,957.04
2023-05-16T08:24:28.267Z,957.04
2023-05-16T08:25:23.548Z,957.04
2023-05-16T08:26:19.106Z,957.04
2023-05-16T08:27:14.475Z,957.04
2023-05-16T08:28:09.804Z,957.02
2023-05-16T08:29:05.347Z,957.06
2023-05-16T08:30:00.863Z,957.06
2023-05-16T08:30:56.030Z,957.06
2023-05-16T08:31:51.529Z,957.06
2023-05-16T08:32:46.868Z,957.06
2023-05-16T08:33:42.087Z,957.08
2023-05-16T08:34:37.461Z,957.10
2023-05-16T08:35:32.899Z,957.12
2023-05-16T08:36:28.258Z,957.12
2023-05-16T08:37:23.683Z,957.14
2023-05-16T08:38:19.046Z,957.16
2023-05-16T08:39:14.507Z,957.12
2023-05-16T08:40:09.984Z,957.14
2023-05-16T08:41:05.424Z,957.14
2023-05-16T08:42:00.893Z,957.14
2023-05-16T08:42:56.388Z,957.12
2023-05-16T08:43:51.676Z,957.10
2023-05-16T08:44:47.178Z,957.12
2023-05-16T08:45:42.421Z,957.12
2023-05-16T08:46:37.872Z,957.12
2023-05-16T08:47:33.336Z,957.14
2023-05-16T08:48:28.781Z,957.16
2023-05-16T08:49:24.248Z,957.20
2023-05-16T08:50:19.606Z,957.18
2023-05-16T08:51:14.983Z,957.22
2023-05-16T08:52:10.408Z,957.20
2023-05-16T08:53:05.787Z,957.22
2023-05-16T08:54:01.100Z,957.20
2023-05-16T08:55:09.051Z,957.20
2023-05-16T08:55:53.000Z,957.22
2023-05-16T08:56:47.652Z,957.26
2023-05-16T08:57:43.011Z,957.24
2023-05-16T08:58:38.895Z,957.26
2023-05-16T08:59:33.924Z,957.28
2023-05-16T09:00:29.413Z,957.24
2023-05-16T09:01:24.735Z,957.24
2023-05-16T09:02:20.111Z,957.24
2023-05-16T09:03:15.610Z,957.24
2023-05-16T09:04:11.042Z,957.24
2023-05-16T09:05:06.535Z,957.26
2023-05-16T09:06:01.980Z,957.26
2023-05-16T09:06:57.622Z,957.24
2023-05-16T09:07:52.793Z,957.30
2023-05-16T09:08:48.272Z,957.30
2023-05-16T09:09:43.627Z,957.32
2023-05-16T09:10:39.098Z,957.32
2023-05-16T09:11:36.755Z,957.32
2023-05-16T09:12:29.900Z,957.34
2023-05-16T09:13:25.368Z,957.28
2023-05-16T09:14:20.861Z,957.32
2023-05-16T09:15:16.468Z,957.26
2023-05-16T09:16:11.939Z,957.28
2023-05-16T09:17:08.230Z,957.28
2023-05-16T09:18:03.278Z,957.30
2023-05-16T09:18:58.827Z,957.32
2023-05-16T09:19:53.981Z,957.30
2023-05-16T09:20:49.396Z,957.34
2023-05-16T09:21:44.903Z,957.34
2023-05-16T09:22:40.355Z,957.38
2023-05-16T09:23:37.237Z,957.34
2023-05-16T09:24:31.437Z,957.40
2023-05-16T09:26:22.271Z,957.36
2023-05-16T09:27:17.634Z,957.38
2023-05-16T09:28:13.084Z,957.38
2023-05-16T09:29:08.603Z,957.40
2023-05-16T09:30:04.030Z,957.40
2023-05-16T09:30:59.534Z,957.42
2023-05-16T09:31:54.976Z,957.40
2023-05-16T09:32:50.601Z,957.42
2023-05-16T09:33:46.026Z,957.42
2023-05-16T09:34:41.729Z,957.40
2023-05-16T09:35:43.949Z,957.42
2023-05-16T09:36:33.681Z,957.42
2023-05-16T09:37:28.212Z,957.46
2023-05-16T09:38:23.824Z,957.46
2023-05-16T09:39:19.312Z,957.42
2023-05-16T09:46:50.335Z,957.47
2023-05-16T09:47:45.451Z,957.42
2023-05-16T09:48:40.950Z,957.44
2023-05-16T09:49:36.647Z,957.44
2023-05-16T09:50:31.979Z,957.46
2023-05-16T09:51:27.436Z,957.42
2023-05-16T09:52:22.954Z,957.42
2023-05-16T09:53:18.406Z,957.38
2023-05-16T09:54:13.919Z,957.42
2023-05-16T09:55:09.515Z,957.40
2023-05-16T09:56:05.029Z,957.42
2023-05-16T09:57:02.701Z,957.40
2023-05-16T09:57:55.797Z,957.40
2023-05-16T09:58:51.268Z,957.40
2023-05-16T09:59:46.948Z,957.34
2023-05-16T10:00:42.149Z,957.36
2023-05-16T10:01:37.680Z,957.34
2023-05-16T10:02:33.108Z,957.30
2023-05-16T10:03:28.550Z,957.26
2023-05-16T10:04:24.321Z,957.26
2023-05-16T10:05:19.421Z,957.24
2023-05-16T10:06:14.896Z,957.24
2023-05-16T10:07:11.313Z,957.22
2023-05-16T10:08:05.854Z,957.28
2023-05-16T10:09:02.918Z,957.26
2023-05-16T10:09:56.934Z,957.28
2023-05-16T10:10:52.447Z,957.28
2023-05-16T10:11:47.871Z,957.28
2023-05-16T10:12:43.342Z,957.28
2023-05-16T10:13:38.667Z,957.28
2023-05-16T10:14:34.146Z,957.32
2023-05-16T10:15:30.066Z,957.26
2023-05-16T10:16:25.027Z,957.26
2023-05-16T10:17:20.566Z,957.28
2023-05-16T10:18:15.934Z,957.30
2023-05-16T10:19:11.446Z,957.26
2023-05-16T10:20:07.085Z,957.30
2023-05-16T10:21:02.559Z,957.30
2023-05-16T10:21:58.142Z,957.30
2023-05-16T10:22:53.622Z,957.30
2023-05-16T10:23:48.944Z,957.30
2023-05-16T10:24:44.297Z,957.32
2023-05-16T10:25:39.830Z,957.30
2023-05-16T10:26:35.149Z,957.32
2023-05-16T10:27:30.541Z,957.30
2023-05-16T10:28:25.795Z,957.34
2023-05-16T10:29:21.321Z,957.34
2023-05-16T10:30:16.678Z,957.36
2023-05-16T10:31:12.064Z,957.34
2023-05-16T10:32:07.519Z,957.32
2023-05-16T10:33:02.949Z,957.30
2023-05-16T10:33:58.279Z,957.26
2023-05-16T10:34:53.780Z,957.24
2023-05-16T10:35:49.426Z,957.28
2023-05-16T10:36:44.723Z,957.32
2023-05-16T10:37:40.096Z,957.30
2023-05-16T10:38:35.705Z,957.34
2023-05-16T10:39:31.029Z,957.34
2023-05-16T10:40:26.497Z,957.36
2023-05-16T10:41:21.901Z,957.34
2023-05-16T10:42:17.268Z,957.34
2023-05-16T10:43:12.744Z,957.30
2023-05-16T10:44:08.476Z,957.28
2023-05-16T10:45:05.806Z,957.32
2023-05-16T10:45:59.530Z,957.32
2023-05-16T10:46:54.765Z,957.28
2023-05-16T10:47:50.281Z,957.26
2023-05-16T10:48:45.944Z,957.26
2023-05-16T10:49:41.083Z,957.24
2023-05-16T10:50:36.330Z,957.22
2023-05-16T10:51:31.786Z,957.18
2023-05-16T10:52:27.193Z,957.22
2023-05-16T10:53:22.838Z,957.22
2023-05-16T10:54:18.109Z,957.18
2023-05-16T10:55:13.559Z,957.20
2023-05-16T10:56:09.041Z,957.20
2023-05-16T10:57:04.369Z,957.20
2023-05-16T10:57:59.868Z,957.22
2023-05-16T10:58:55.185Z,957.20
2023-05-16T10:59:50.475Z,957.24
2023-05-16T11:00:45.952Z,957.24
2023-05-16T11:01:41.362Z,957.30
2023-05-16T11:02:36.767Z,957.30
2023-05-16T11:03:32.278Z,957.36
2023-05-16T11:04:27.701Z,957.34
2023-05-16T11:05:23.134Z,957.34
2023-05-16T11:06:21.047Z,957.34
2023-05-16T11:07:14.080Z,957.32
2023-05-16T11:08:09.576Z,957.38
2023-05-16T11:09:04.929Z,957.32
2023-05-16T11:10:00.355Z,957.36
2023-05-16T11:10:55.714Z,957.40
2023-05-16T11:11:51.106Z,957.36
2023-05-16T11:12:46.401Z,957.38
2023-05-16T11:13:41.833Z,957.42
2023-05-16T11:14:37.249Z,957.42
2023-05-16T11:15:32.822Z,957.42
2023-05-16T11:16:28.153Z,957.44
2023-05-16T11:17:23.896Z,957.44
2023-05-16T11:18:19.151Z,957.44
2023-05-16T11:19:14.785Z,957.44
2023-05-16T11:20:09.792Z,957.42
2023-05-16T11:21:05.397Z,957.44
2023-05-16T11:22:01.023Z,957.42
2023-05-16T11:22:56.475Z,957.44
2023-05-16T11:23:51.972Z,957.44
2023-05-16T11:24:47.593Z,957.42
2023-05-16T11:25:42.958Z,957.42
2023-05-16T11:26:38.252Z,957.40
2023-05-16T11:27:33.908Z,957.42
2023-05-16T11:28:29.092Z,957.44
2023-05-16T11:29:24.553Z,957.42
2023-05-16T11:30:20.059Z,957.44
2023-05-16T11:31:15.531Z,957.44
2023-05-16T11:32:10.911Z,957.47
2023-05-16T11:33:06.538Z,957.46
2023-05-16T11:34:01.942Z,957.44
2023-05-16T11:34:57.463Z,957.46
2023-05-16T11:35:56.683Z,957.44
2023-05-16T11:36:49.146Z,957.44
2023-05-16T11:37:43.577Z,957.40
2023-05-16T11:38:39.016Z,957.46
2023-05-16T11:39:34.505Z,957.46
2023-05-16T11:40:30.053Z,957.36
2023-05-16T11:41:25.472Z,957.46